Pineville, MO

11:13 PM CDT on August 20, 2014 (GMT -0500)
Avoca | Change Station
CLOSE
Current Station
Personal Weather Station
Location: Rogers, AR
Elevation: 1348 ft
Nearby Weather Stations

Elev 1348 ft 36.41 °N, 94.07 °W | Updated 6 minutes ago

Clear
Clear
76.8 °F
Feels Like 78 °F
N
3.7
Wind Variable Wind from East

Today
High -- | Low -- °F
--% Chance of Precip.
Yesterday
High -- | Low -- °F
Precip. -- in
6:39 AM 8:01 PM
Waning Crescent, 17% visible
Pressure 30.01 in
Visibility 10.0 miles
Clouds Clear
Heat Index 78 °F
Dew Point 69 °F
Humidity 76%
Rainfall 0.00 in
Snow Depth Not available.
UV 0 out of 12
Pollen 10.30 out of 12
Air Quality Not available.
Flu Activity Not available.
METAR KVBT 210355Z AUTO 18008KT 10SM CLR 26/19 A3001 RMK AO1

More Conditions Fewer Conditions

Pressure 30.01 in
Visibility 10.0 miles
Clouds Clear
Heat Index 78 °F
Dew Point 69 °F
Humidity 76%
Rainfall 0.00 in
Snow Depth Not available.
UV 0 out of 12
Pollen 10.30 out of 12
Air Quality Not available.
Flu Activity Not available.
METAR KVBT 210355Z AUTO 18008KT 10SM CLR 26/19 A3001 RMK AO1

More Conditions Fewer Conditions

10-Day Weather Forecast

Almanac

Astronomy

Aug. 20, 2014 Rise Set
Actual Time 6:39 AM CDT 8:01 PM CDT
Civil Twilight 6:11 AM CDT 8:29 PM CDT
Nautical Twilight 5:39 AM CDT 9:01 PM CDT
Astronomical Twilight 5:05 AM CDT 9:35 PM CDT
Moon 2:22 AM CDT (8/20) 4:44 PM CDT (8/20)
Length of Visible Light 14h 17m
Length of Day
13h 22m
Tomorrow will be 2m 6s shorter.
Waning Crescent, 17% of the Moon is Illuminated
Aug 21
Waning Crescent
Aug 25
New
Sep 2
First Quarter
Sep 8
Full
Sep 15
Last Quarter

Today's Extremes

State Highs State Lows

Community

WunderPhotos

Upload Photos

1,745,851 photos uploaded!

Nearby

Snow Depth

Station Depth Elevation
No new snow has been reported.

Earthquake Activity

City Distance Mag. Time & Date
No recent earthquake activity has been reported nearby.
Minimum magnitude displayed is 2.5.

Coastal Water Temperatures

Place Temperature
No Stations Reporting

Nearby Weather Stations